Terminal Aerodrome Forecast
Issued by NWS

Home | Current Version | Previous Version | Text Only | Print | Product List | Glossary On
Versions: 1 2 3 4 5 6 7 8 9 10 11 12 13 14 15 16
948
FTUS43 KIND 202322
TAFLAF
TAF
KLAF 202322Z 2100/2124 04006KT P6SM SCT045 BKN200
     FM210400 05005KT P6SM SCT060 BKN120
     FM211200 09006KT 5SM SHRA VCTS OVC035CB
     FM211800 15008KT 6SM SHRA VCTS BKN040CB
     FM212100 21008KT P6SM VCTS BKN060CB
      AMD LTD TO CLD VIS AND WIND 2101/2113=

USA.gov is the U.S. government's official web portal to all federal, state and local government web resources and services.